CSN3248 ZGCD-ZGGG
Flight info
| Callsign | CSN3248 |
|---|---|
| Flight time | N/A |
| Altitude | 38100 |
| Route | CD W194 LLC R343 NUPTI W45 IKAVO |
| Aircraft | A320/M-SDE3FGHIRWY/LB1 |
Departure
| Time | 2026-04-26 07:05 |
|---|---|
| Airport | Changde Taohuayuan Airport (ZGCD) |
Arrival
| Time | N/A |
|---|---|
| Airport | Guangzhou Baiyun International Airport (ZGGG) |
| Time | Latitude | Longitude | Altitude | Speed | Heading |
|---|---|---|---|---|---|
| 2026-04-26 06:36 | 28.92455 | 111.63866 | 150 ft | 0 kts | 282° |
| 2026-04-26 06:46 | 28.92455 | 111.63867 | 152 ft | 0 kts | 282° |
| 2026-04-26 06:56 | 28.92452 | 111.63887 | 152 ft | 4 kts | 274° |
| 2026-04-26 06:57 | 28.92451 | 111.63917 | 149 ft | 4 kts | 263° |
| 2026-04-26 06:57 | 28.92455 | 111.63941 | 149 ft | 1 kts | 260° |
| 2026-04-26 06:57 | 28.92455 | 111.63946 | 149 ft | 2 kts | 260° |
| 2026-04-26 07:00 | 28.92454 | 111.63940 | 147 ft | 4 kts | 256° |
| 2026-04-26 07:00 | 28.92404 | 111.63907 | 149 ft | 14 kts | 195° |
| 2026-04-26 07:00 | 28.92270 | 111.63874 | 149 ft | 23 kts | 193° |
| 2026-04-26 07:00 | 28.92117 | 111.63833 | 149 ft | 22 kts | 193° |
| 2026-04-26 07:01 | 28.91969 | 111.63792 | 149 ft | 22 kts | 193° |
| 2026-04-26 07:01 | 28.91882 | 111.63827 | 149 ft | 13 kts | 109° |
| 2026-04-26 07:01 | 28.91855 | 111.63921 | 148 ft | 13 kts | 127° |
| 2026-04-26 07:01 | 28.91750 | 111.63928 | 148 ft | 21 kts | 193° |
| 2026-04-26 07:02 | 28.91572 | 111.63881 | 148 ft | 32 kts | 193° |
| 2026-04-26 07:02 | 28.91342 | 111.63819 | 148 ft | 34 kts | 193° |
| 2026-04-26 07:02 | 28.91120 | 111.63761 | 150 ft | 32 kts | 193° |
| 2026-04-26 07:02 | 28.90907 | 111.63704 | 149 ft | 30 kts | 193° |
| 2026-04-26 07:03 | 28.90809 | 111.63652 | 148 ft | 12 kts | 227° |
| 2026-04-26 07:03 | 28.90773 | 111.63660 | 148 ft | 3 kts | 79° |
| 2026-04-26 07:03 | 28.90805 | 111.63677 | 148 ft | 9 kts | 17° |
| 2026-04-26 07:03 | 28.90828 | 111.63682 | 148 ft | 0 kts | 11° |
| 2026-04-26 07:04 | 28.90919 | 111.63706 | 149 ft | 42 kts | 13° |
| 2026-04-26 07:04 | 28.91439 | 111.63845 | 148 ft | 108 kts | 13° |
| 2026-04-26 07:04 | 28.92341 | 111.64083 | 153 ft | 156 kts | 13° |
| 2026-04-26 07:04 | 28.93484 | 111.64393 | 401 ft | 174 kts | 15° |
| 2026-04-26 07:05 | 28.94694 | 111.64697 | 997 ft | 182 kts | 12° |
| 2026-04-26 07:05 | 28.95972 | 111.64825 | 1488 ft | 186 kts | 2° |
| 2026-04-26 07:05 | 28.97261 | 111.64869 | 2021 ft | 184 kts | 0° |
| 2026-04-26 07:05 | 28.98565 | 111.64874 | 2478 ft | 191 kts | 1° |
| 2026-04-26 07:06 | 28.99919 | 111.64885 | 2971 ft | 197 kts | 359° |
| 2026-04-26 07:06 | 29.01349 | 111.64853 | 3191 ft | 215 kts | 358° |
| 2026-04-26 07:06 | 29.02919 | 111.64850 | 3346 ft | 237 kts | 5° |
| 2026-04-26 07:06 | 29.04529 | 111.65528 | 3484 ft | 262 kts | 39° |
| 2026-04-26 07:07 | 29.05625 | 111.67229 | 3883 ft | 275 kts | 74° |
| 2026-04-26 07:07 | 29.05683 | 111.69393 | 4532 ft | 277 kts | 109° |
| 2026-04-26 07:07 | 29.04678 | 111.71229 | 5212 ft | 274 kts | 144° |
| 2026-04-26 07:07 | 29.03011 | 111.72229 | 5975 ft | 272 kts | 162° |
| 2026-04-26 07:08 | 29.01224 | 111.72950 | 6719 ft | 273 kts | 164° |
| 2026-04-26 07:08 | 28.99406 | 111.73620 | 7428 ft | 276 kts | 165° |
| 2026-04-26 07:08 | 28.97564 | 111.74289 | 8157 ft | 279 kts | 165° |
| 2026-04-26 07:08 | 28.95725 | 111.74971 | 8858 ft | 283 kts | 165° |
| 2026-04-26 07:09 | 28.93846 | 111.75682 | 9596 ft | 286 kts | 164° |
| 2026-04-26 07:09 | 28.91946 | 111.76415 | 10213 ft | 292 kts | 164° |
| 2026-04-26 07:09 | 28.89947 | 111.77190 | 10381 ft | 315 kts | 163° |
| 2026-04-26 07:09 | 28.87799 | 111.78027 | 10503 ft | 337 kts | 163° |
| 2026-04-26 07:10 | 28.80714 | 111.80818 | 11898 ft | 363 kts | 163° |
| 2026-04-26 07:11 | 28.75883 | 111.82723 | 13112 ft | 371 kts | 163° |
| 2026-04-26 07:11 | 28.73432 | 111.83685 | 13733 ft | 374 kts | 163° |
| 2026-04-26 07:11 | 28.70952 | 111.84655 | 14259 ft | 378 kts | 163° |
| 2026-04-26 07:11 | 28.68444 | 111.85632 | 14791 ft | 382 kts | 163° |
| 2026-04-26 07:12 | 28.58732 | 111.89414 | 16722 ft | 396 kts | 163° |
| 2026-04-26 07:13 | 28.56113 | 111.90438 | 17202 ft | 400 kts | 163° |
| 2026-04-26 07:13 | 28.53467 | 111.91469 | 17693 ft | 403 kts | 163° |
| 2026-04-26 07:13 | 28.50800 | 111.92507 | 18163 ft | 407 kts | 163° |
| 2026-04-26 07:13 | 28.48109 | 111.93552 | 18582 ft | 410 kts | 163° |
| 2026-04-26 07:14 | 28.45395 | 111.94609 | 19000 ft | 413 kts | 164° |
| 2026-04-26 07:14 | 28.42675 | 111.95670 | 19447 ft | 415 kts | 164° |
| 2026-04-26 07:14 | 28.39940 | 111.96737 | 19888 ft | 417 kts | 163° |
| 2026-04-26 07:14 | 28.37265 | 111.98052 | 20312 ft | 423 kts | 154° |
| 2026-04-26 07:15 | 28.34756 | 111.99843 | 20710 ft | 428 kts | 149° |
| 2026-04-26 07:15 | 28.32272 | 112.01723 | 21127 ft | 429 kts | 149° |
| 2026-04-26 07:15 | 28.29784 | 112.03600 | 21529 ft | 430 kts | 149° |
| 2026-04-26 07:15 | 28.27278 | 112.05491 | 21885 ft | 434 kts | 150° |
| 2026-04-26 07:16 | 28.24788 | 112.07361 | 22233 ft | 436 kts | 149° |
| 2026-04-26 07:16 | 28.22252 | 112.09263 | 22614 ft | 438 kts | 150° |
| 2026-04-26 07:16 | 28.19702 | 112.11175 | 22989 ft | 441 kts | 150° |
| 2026-04-26 07:16 | 28.17133 | 112.13104 | 23386 ft | 443 kts | 150° |
| 2026-04-26 07:17 | 28.14550 | 112.15039 | 23726 ft | 446 kts | 151° |
| 2026-04-26 07:17 | 28.11801 | 112.16644 | 24031 ft | 442 kts | 163° |
| 2026-04-26 07:17 | 28.08847 | 112.17558 | 24340 ft | 438 kts | 175° |
| 2026-04-26 07:17 | 28.05823 | 112.17756 | 24672 ft | 434 kts | 187° |
| 2026-04-26 07:18 | 28.02857 | 112.17250 | 24994 ft | 430 kts | 198° |
| 2026-04-26 07:18 | 28.00058 | 112.16087 | 25321 ft | 427 kts | 209° |
| 2026-04-26 07:18 | 27.97488 | 112.14406 | 25654 ft | 427 kts | 214° |
| 2026-04-26 07:18 | 27.94978 | 112.12668 | 25961 ft | 430 kts | 214° |
| 2026-04-26 07:19 | 27.92428 | 112.10887 | 26298 ft | 431 kts | 214° |
| 2026-04-26 07:19 | 27.89872 | 112.09092 | 26620 ft | 433 kts | 214° |
| 2026-04-26 07:19 | 27.87305 | 112.07287 | 26939 ft | 435 kts | 214° |
| 2026-04-26 07:19 | 27.84725 | 112.05477 | 27245 ft | 437 kts | 214° |
| 2026-04-26 07:20 | 27.82134 | 112.03664 | 27542 ft | 439 kts | 214° |
| 2026-04-26 07:20 | 27.79533 | 112.01848 | 27837 ft | 441 kts | 214° |
| 2026-04-26 07:20 | 27.76918 | 112.00024 | 28122 ft | 443 kts | 214° |
| 2026-04-26 07:20 | 27.74288 | 111.98190 | 28415 ft | 445 kts | 214° |
| 2026-04-26 07:21 | 27.71652 | 111.96350 | 28690 ft | 447 kts | 214° |
| 2026-04-26 07:21 | 27.68998 | 111.94498 | 28942 ft | 450 kts | 214° |
| 2026-04-26 07:21 | 27.66331 | 111.92638 | 29237 ft | 451 kts | 214° |
| 2026-04-26 07:21 | 27.63667 | 111.90780 | 29628 ft | 450 kts | 214° |
| 2026-04-26 07:22 | 27.61007 | 111.88923 | 30012 ft | 449 kts | 214° |
| 2026-04-26 07:22 | 27.58350 | 111.87072 | 30321 ft | 449 kts | 214° |
| 2026-04-26 07:22 | 27.55696 | 111.85230 | 30639 ft | 448 kts | 214° |
| 2026-04-26 07:22 | 27.53045 | 111.83391 | 30963 ft | 447 kts | 214° |
| 2026-04-26 07:23 | 27.50397 | 111.81553 | 31288 ft | 447 kts | 214° |
| 2026-04-26 07:23 | 27.47749 | 111.79714 | 31613 ft | 446 kts | 214° |
| 2026-04-26 07:23 | 27.45107 | 111.77883 | 31933 ft | 445 kts | 215° |
| 2026-04-26 07:23 | 27.42475 | 111.76061 | 32254 ft | 444 kts | 215° |
| 2026-04-26 07:24 | 27.39845 | 111.74240 | 32586 ft | 443 kts | 215° |
| 2026-04-26 07:24 | 27.37220 | 111.72421 | 32926 ft | 442 kts | 215° |
| 2026-04-26 07:24 | 27.34602 | 111.70607 | 33274 ft | 441 kts | 215° |
| 2026-04-26 07:24 | 27.31989 | 111.68799 | 33619 ft | 440 kts | 215° |
| 2026-04-26 07:25 | 27.29377 | 111.66993 | 33939 ft | 439 kts | 215° |
| 2026-04-26 07:25 | 27.26773 | 111.65194 | 34225 ft | 439 kts | 216° |
| 2026-04-26 07:25 | 27.24176 | 111.63400 | 34499 ft | 438 kts | 216° |
| 2026-04-26 07:25 | 27.21579 | 111.61609 | 34761 ft | 438 kts | 216° |
| 2026-04-26 07:26 | 27.18987 | 111.59824 | 35060 ft | 436 kts | 216° |
| 2026-04-26 07:26 | 27.16403 | 111.58048 | 35363 ft | 435 kts | 216° |
| 2026-04-26 07:26 | 27.13810 | 111.56302 | 35650 ft | 434 kts | 215° |
| 2026-04-26 07:26 | 27.11243 | 111.54609 | 35901 ft | 434 kts | 215° |
| 2026-04-26 07:27 | 27.08635 | 111.52907 | 35995 ft | 433 kts | 215° |
| 2026-04-26 07:27 | 27.03445 | 111.49529 | 36009 ft | 430 kts | 215° |
| 2026-04-26 07:28 | 26.98200 | 111.46297 | 36011 ft | 435 kts | 205° |
| 2026-04-26 07:28 | 26.95222 | 111.45533 | 36005 ft | 445 kts | 188° |
| 2026-04-26 07:28 | 26.92104 | 111.45767 | 36015 ft | 457 kts | 171° |
| 2026-04-26 07:28 | 26.89113 | 111.47067 | 36019 ft | 469 kts | 153° |
| 2026-04-26 07:29 | 26.86560 | 111.49386 | 36013 ft | 479 kts | 134° |
| 2026-04-26 07:29 | 26.82423 | 111.55297 | 36005 ft | 483 kts | 131° |
| 2026-04-26 07:30 | 26.78319 | 111.61260 | 36009 ft | 484 kts | 131° |
| 2026-04-26 07:30 | 26.74205 | 111.67217 | 36006 ft | 484 kts | 131° |
| 2026-04-26 07:31 | 26.70079 | 111.73164 | 36004 ft | 484 kts | 131° |
| 2026-04-26 07:31 | 26.65945 | 111.79104 | 36012 ft | 484 kts | 131° |
| 2026-04-26 07:32 | 26.61811 | 111.85053 | 36003 ft | 485 kts | 131° |
| 2026-04-26 07:32 | 26.57666 | 111.91004 | 36003 ft | 485 kts | 131° |
| 2026-04-26 07:33 | 26.53509 | 111.96954 | 36001 ft | 486 kts | 131° |
| 2026-04-26 07:33 | 26.49354 | 112.02907 | 36003 ft | 486 kts | 131° |
| 2026-04-26 07:34 | 26.45194 | 112.08859 | 36010 ft | 486 kts | 131° |
| 2026-04-26 07:34 | 26.41054 | 112.14765 | 36010 ft | 486 kts | 131° |
| 2026-04-26 07:35 | 26.36879 | 112.20715 | 36001 ft | 487 kts | 131° |
| 2026-04-26 07:35 | 26.32695 | 112.26672 | 36002 ft | 488 kts | 131° |
| 2026-04-26 07:36 | 26.28506 | 112.32637 | 36001 ft | 489 kts | 131° |
| 2026-04-26 07:36 | 26.24310 | 112.38600 | 36005 ft | 488 kts | 131° |
| 2026-04-26 07:37 | 26.20121 | 112.44541 | 36028 ft | 487 kts | 131° |
| 2026-04-26 07:37 | 26.15930 | 112.50474 | 36025 ft | 487 kts | 131° |
| 2026-04-26 07:38 | 26.11742 | 112.56399 | 36023 ft | 487 kts | 131° |
| 2026-04-26 07:38 | 26.07579 | 112.62289 | 36013 ft | 487 kts | 131° |
| 2026-04-26 07:39 | 26.03382 | 112.68206 | 36025 ft | 487 kts | 131° |
| 2026-04-26 07:39 | 25.99183 | 112.74116 | 36020 ft | 487 kts | 131° |
| 2026-04-26 07:40 | 25.94983 | 112.80036 | 36016 ft | 487 kts | 131° |
| 2026-04-26 07:40 | 25.90773 | 112.85955 | 36005 ft | 488 kts | 131° |